New Hampton, New York
Current Conditions -  °F | °C
As of 8:54 AM on Thursday 30 Oct 2014 (Local Time) from KMGJ Reporting Station
Broken Clouds Broken Clouds  
Wind Chill: 37°   Ceiling: 8000
Heat Index: 41°   Visibility: 10mi
Dew Point: 39°   Wind: 6mph
Humidity: 93%   Direction: 220°SW
Pressure: 30"   Gusts: NA
Location:  41.41°N, 74.41°W
Report Text: KMGJ 301254Z AUTO 22005KT 10SM BKN080 05/04 A3000 RMK AO2 SLP159 T00500039 TSNO
Loading
Personal Weather Stations






























Interactive Weather Map
Tropical Storm Tracking
New forecast layout! Learn more

10-Day Weather Forecast

Advertisements
Track Severe Weather on mobile